Time;durP1;ratioP1;P1;durP2;ratioP2;P2;SDS_P1;SDS_P2;PMS_P1;PMS_P2;Temp;Humidity;BMP_temperature;BMP_pressure;BME280_temperature;BME280_humidity;BME280_pressure;Samples;Min_cycle;Max_cycle;Signal;HPM_P1;HPM_P2
2022/03/21 00:01:17;;;;;;;24.40;16.65;;;8.00;99.90;;;;;;5031269;28;20041;-88
2022/03/21 00:03:42;;;;;;;25.90;15.38;;;8.00;99.90;;;;;;5014500;28;20092;-88
2022/03/21 00:06:09;;;;;;;22.67;14.82;;;8.00;99.90;;;;;;5014790;28;20049;-87
2022/03/21 00:08:34;;;;;;;21.30;14.93;;;8.00;99.90;;;;;;5031538;28;20037;-87
2022/03/21 00:11:00;;;;;;;24.25;16.05;;;8.00;99.90;;;;;;5031109;28;20041;-88
2022/03/21 00:13:26;;;;;;;23.17;15.10;;;8.00;99.90;;;;;;5031284;28;20045;-87
2022/03/21 00:15:53;;;;;;;28.25;15.85;;;8.00;99.90;;;;;;5031685;28;20388;-88
2022/03/21 00:18:20;;;;;;;24.40;14.77;;;8.00;99.90;;;;;;5031078;28;20712;-88
2022/03/21 00:20:48;;;;;;;20.33;14.27;;;8.00;99.90;;;;;;5031031;28;20045;-88
2022/03/21 00:23:15;;;;;;;20.58;13.57;;;8.00;99.90;;;;;;5029555;28;20041;-88
2022/03/21 00:25:40;;;;;;;19.58;13.70;;;8.00;99.90;;;;;;5030070;28;20133;-88
2022/03/21 00:28:07;;;;;;;24.20;13.77;;;8.00;99.90;;;;;;5030708;28;20516;-88
2022/03/21 00:30:34;;;;;;;20.48;12.40;;;8.00;99.90;;;;;;5030924;28;20405;-88
2022/03/21 00:33:00;;;;;;;20.83;13.52;;;8.00;99.90;;;;;;5031061;28;20174;-88
2022/03/21 00:35:27;;;;;;;23.50;13.63;;;8.00;99.90;;;;;;5031411;28;20506;-88
2022/03/21 00:37:53;;;;;;;22.77;15.18;;;8.00;99.90;;;;;;5030898;28;20049;-88
2022/03/21 00:40:19;;;;;;;21.63;13.48;;;8.00;99.90;;;;;;5030421;28;20034;-88
2022/03/21 00:42:51;;;;;;;20.73;13.50;;;8.00;99.90;;;;;;5039568;28;20476;-88
2022/03/21 00:45:18;;;;;;;;;;;8.00;99.90;;;;;;5033665;28;20397;-88
2022/03/21 00:47:45;;;;;;;21.52;11.57;;;7.90;99.90;;;;;;5012743;28;19918;-88
2022/03/21 00:50:13;;;;;;;20.95;11.73;;;7.90;99.90;;;;;;5012248;28;20125;-86
2022/03/21 00:52:47;;;;;;;19.27;11.60;;;7.90;99.90;;;;;;5012202;28;20037;-88
2022/03/21 00:55:14;;;;;;;24.20;13.88;;;8.00;99.90;;;;;;5027763;28;20057;-88
2022/03/21 00:57:42;;;;;;;21.13;11.93;;;7.90;99.90;;;;;;4994586;28;20046;-88
2022/03/21 01:00:14;;;;;;;21.80;11.95;;;7.90;99.90;;;;;;5010779;28;20064;-88
2022/03/21 01:02:40;;;;;;;18.10;11.48;;;7.90;99.90;;;;;;4993952;28;20042;-88
2022/03/21 01:05:07;;;;;;;18.02;11.75;;;7.90;99.90;;;;;;5010573;28;20562;-88
2022/03/21 01:07:33;;;;;;;19.25;12.57;;;7.90;99.90;;;;;;5010358;28;20038;-88
2022/03/21 01:09:59;;;;;;;17.25;12.07;;;7.90;99.90;;;;;;5010787;28;20049;-88
2022/03/21 01:12:26;;;;;;;18.65;11.88;;;7.90;99.90;;;;;;5010650;28;20557;-88
2022/03/21 01:14:51;;;;;;;21.50;11.68;;;7.90;99.90;;;;;;4994657;28;20038;-88
2022/03/21 01:17:17;;;;;;;20.73;11.95;;;7.90;99.90;;;;;;5010672;28;20076;-88
2022/03/21 01:19:43;;;;;;;19.33;12.13;;;7.90;99.90;;;;;;5009965;28;20038;-88
2022/03/21 01:22:09;;;;;;;18.20;11.65;;;7.90;99.90;;;;;;5017811;28;20534;-88
2022/03/21 01:24:35;;;;;;;18.42;11.50;;;7.90;99.90;;;;;;5029861;28;20037;-88
2022/03/21 01:27:05;;;;;;;18.33;11.70;;;7.90;99.90;;;;;;5012709;28;20040;-88
2022/03/21 01:29:31;;;;;;;17.63;11.70;;;7.90;99.90;;;;;;5029982;28;20490;-88
2022/03/21 01:31:57;;;;;;;22.00;12.63;;;7.90;99.90;;;;;;5030330;28;20152;-88
2022/03/21 01:34:23;;;;;;;18.67;11.45;;;7.90;99.90;;;;;;5030318;28;20124;-88
2022/03/21 01:36:48;;;;;;;18.83;12.02;;;7.90;99.90;;;;;;5013367;28;20045;-88
2022/03/21 01:39:14;;;;;;;18.83;11.52;;;7.90;99.90;;;;;;5030064;28;20041;-88
2022/03/21 01:41:40;;;;;;;19.80;11.25;;;7.90;99.90;;;;;;5029673;28;20037;-88
2022/03/21 01:44:07;;;;;;;18.05;10.73;;;7.80;99.90;;;;;;5012073;28;20458;-88
2022/03/21 01:46:35;;;;;;;18.00;11.38;;;7.80;99.90;;;;;;5013178;28;20410;-88
2022/03/21 01:49:01;;;;;;;20.48;11.63;;;7.80;99.90;;;;;;5029752;28;20049;-88
2022/03/21 01:51:28;;;;;;;21.33;11.38;;;7.80;99.90;;;;;;5028907;28;20042;-88
2022/03/21 01:56:40;;;;;;;19.58;11.63;;;7.80;99.90;;;;;;5029878;28;20529;-88
2022/03/21 01:59:11;;;;;;;20.25;11.45;;;7.80;99.90;;;;;;5029497;28;20048;-88
2022/03/21 02:01:37;;;;;;;17.73;10.32;;;7.80;99.90;;;;;;5030728;28;20041;-88
2022/03/21 02:04:04;;;;;;;21.90;12.32;;;7.70;99.90;;;;;;5028956;28;20152;-88
2022/03/21 02:06:29;;;;;;;18.65;10.95;;;7.70;99.90;;;;;;5013074;28;20069;-88
2022/03/21 02:09:00;;;;;;;17.27;11.27;;;7.70;99.90;;;;;;5029540;28;20533;-88
2022/03/21 02:11:27;;;;;;;17.75;9.70;;;7.70;99.90;;;;;;5029410;28;20045;-88
2022/03/21 02:13:57;;;;;;;17.90;10.00;;;7.70;99.90;;;;;;5029756;28;20525;-88
2022/03/21 02:16:24;;;;;;;16.02;10.05;;;7.80;99.90;;;;;;5029630;28;20045;-88
2022/03/21 02:18:50;;;;;;;19.60;10.43;;;7.70;99.90;;;;;;5029338;28;20073;-88
2022/03/21 02:21:27;;;;;;;17.75;11.32;;;7.70;99.90;;;;;;5012802;28;20091;-87
2022/03/21 02:24:00;;;;;;;20.35;11.02;;;7.70;99.90;;;;;;5029182;28;20046;-88
2022/03/21 02:26:26;;;;;;;19.08;11.55;;;7.70;99.90;;;;;;5029374;28;20048;-87
2022/03/21 02:28:53;;;;;;;19.75;10.55;;;7.70;99.90;;;;;;5012806;28;20041;-88
2022/03/21 02:31:20;;;;;;;21.20;12.02;;;7.70;99.90;;;;;;5029125;28;20037;-87
2022/03/21 02:33:48;;;;;;;17.30;10.77;;;7.70;99.90;;;;;;5013058;28;20129;-88
2022/03/21 02:36:16;;;;;;;19.27;11.52;;;7.70;99.90;;;;;;5029664;28;20037;-87
2022/03/21 02:38:43;;;;;;;15.52;10.30;;;7.70;99.90;;;;;;5029186;28;20124;-88
2022/03/21 02:41:09;;;;;;;19.23;11.45;;;7.70;99.90;;;;;;5029229;28;20045;-88
2022/03/21 02:43:52;;;;;;;18.83;10.75;;;7.70;99.90;;;;;;5028926;28;20128;-88
2022/03/21 02:46:18;;;;;;;;;;;7.70;99.90;;;;;;5029647;28;20038;-88
2022/03/21 02:48:46;;;;;;;17.58;9.75;;;7.70;99.90;;;;;;5031622;28;19927;-88
2022/03/21 02:51:12;;;;;;;19.23;10.95;;;7.70;99.90;;;;;;5032350;28;20049;-88
2022/03/21 02:53:40;;;;;;;20.08;10.73;;;7.70;99.90;;;;;;5016564;28;20037;-88
2022/03/21 02:56:05;;;;;;;20.13;10.90;;;7.60;99.90;;;;;;5032787;28;20052;-87
2022/03/21 02:58:31;;;;;;;18.65;10.40;;;7.60;99.90;;;;;;5032704;28;20042;-87
2022/03/21 03:01:07;;;;;;;20.40;10.93;;;7.60;99.90;;;;;;5033429;28;20099;-87
2022/03/21 03:03:33;;;;;;;17.90;11.32;;;7.60;99.90;;;;;;5032465;28;20045;-87
2022/03/21 03:05:58;;;;;;;17.58;10.75;;;7.50;99.90;;;;;;5032475;28;20041;-88
2022/03/21 03:08:24;;;;;;;20.50;10.60;;;7.50;99.90;;;;;;5032495;28;20051;-88
2022/03/21 03:10:49;;;;;;;15.90;10.10;;;7.50;99.90;;;;;;5032178;28;20047;-88
2022/03/21 03:13:15;;;;;;;21.20;10.82;;;7.40;99.90;;;;;;5032631;28;20076;-88
2022/03/21 03:15:40;;;;;;;16.98;9.68;;;7.40;99.90;;;;;;5032866;28;20083;-87
2022/03/21 03:18:06;;;;;;;18.17;10.85;;;7.40;99.90;;;;;;5032299;28;20574;-87
2022/03/21 03:20:32;;;;;;;18.50;10.40;;;7.30;99.90;;;;;;5033219;28;20034;-88
2022/03/21 03:23:00;;;;;;;19.40;10.75;;;7.30;99.90;;;;;;5031947;28;20067;-87
2022/03/21 03:25:26;;;;;;;19.60;10.77;;;7.30;99.90;;;;;;5032307;28;20050;-88
2022/03/21 03:27:52;;;;;;;18.30;11.52;;;7.30;99.90;;;;;;5032138;28;20415;-87
2022/03/21 03:30:18;;;;;;;18.08;10.70;;;7.30;99.90;;;;;;5031952;28;20517;-88
2022/03/21 03:32:45;;;;;;;19.63;11.52;;;7.20;99.90;;;;;;5032415;28;20037;-87
2022/03/21 03:35:11;;;;;;;18.08;9.75;;;7.20;99.90;;;;;;5032080;28;20045;-88
2022/03/21 03:37:36;;;;;;;18.33;11.38;;;7.10;99.90;;;;;;5031957;28;20414;-88
2022/03/21 03:40:03;;;;;;;17.23;10.43;;;7.00;99.90;;;;;;5031814;28;20041;-87
2022/03/21 03:42:28;;;;;;;19.02;11.52;;;7.00;99.90;;;;;;5032229;28;20049;-87
2022/03/21 03:44:54;;;;;;;16.05;9.23;;;6.90;99.90;;;;;;5031451;28;20040;-87
2022/03/21 03:47:20;;;;;;;21.25;11.68;;;6.90;99.90;;;;;;5032045;28;20049;-88
2022/03/21 03:49:45;;;;;;;19.83;10.90;;;6.80;99.90;;;;;;5031756;28;20034;-88
2022/03/21 03:52:11;;;;;;;19.65;11.02;;;6.80;99.90;;;;;;5031485;28;20041;-88
2022/03/21 03:54:37;;;;;;;23.45;11.15;;;6.80;99.90;;;;;;5032018;28;20110;-88
2022/03/21 03:57:02;;;;;;;19.75;11.15;;;6.80;99.90;;;;;;5015026;28;20049;-87
2022/03/21 03:59:28;;;;;;;18.30;10.77;;;6.70;99.90;;;;;;5031138;28;20049;-88
2022/03/21 04:01:54;;;;;;;19.20;11.57;;;6.70;99.90;;;;;;5015185;28;20054;-88
2022/03/21 04:04:19;;;;;;;19.38;12.32;;;6.70;99.90;;;;;;5031180;28;20110;-88
2022/03/21 04:06:45;;;;;;;17.88;10.48;;;6.70;99.90;;;;;;5031377;28;20037;-88
2022/03/21 04:09:11;;;;;;;18.30;10.65;;;6.60;99.90;;;;;;5031266;28;20573;-88
2022/03/21 04:11:36;;;;;;;19.20;10.88;;;6.60;99.90;;;;;;5014691;28;20049;-88
2022/03/21 04:14:02;;;;;;;21.25;11.88;;;6.50;99.90;;;;;;5031597;28;20042;-88
2022/03/21 04:16:28;;;;;;;18.13;11.98;;;6.50;99.90;;;;;;5031360;28;20064;-87
2022/03/21 04:18:53;;;;;;;21.20;11.40;;;6.50;99.90;;;;;;5031100;28;20045;-88
2022/03/21 04:21:19;;;;;;;19.05;10.85;;;6.50;99.90;;;;;;5013295;28;20048;-88
2022/03/21 04:23:44;;;;;;;18.98;10.25;;;6.40;99.90;;;;;;5031136;28;20045;-88
2022/03/21 04:26:12;;;;;;;20.27;11.23;;;6.40;99.90;;;;;;5030945;28;20049;-87
2022/03/21 04:28:38;;;;;;;19.40;10.73;;;6.30;99.90;;;;;;5031031;28;20391;-88
2022/03/21 04:31:03;;;;;;;19.38;10.43;;;6.30;99.90;;;;;;5030659;28;20042;-88
2022/03/21 04:33:29;;;;;;;16.40;10.25;;;6.20;99.90;;;;;;5031157;28;20099;-88
2022/03/21 04:35:55;;;;;;;19.50;11.90;;;6.10;99.90;;;;;;5030852;28;20037;-88
2022/03/21 04:38:21;;;;;;;19.63;11.10;;;6.10;99.90;;;;;;5030974;28;20052;-88
2022/03/21 04:40:49;;;;;;;20.65;11.65;;;6.10;99.90;;;;;;5030601;28;20073;-88
2022/03/21 04:43:16;;;;;;;17.52;10.80;;;6.10;99.90;;;;;;5030717;28;20056;-88
2022/03/21 04:45:43;;;;;;;19.95;11.10;;;6.00;99.90;;;;;;5030781;28;20101;-88
2022/03/21 04:48:09;;;;;;;21.33;11.73;;;6.00;99.90;;;;;;5030477;28;20407;-88
2022/03/21 04:50:35;;;;;;;18.95;11.48;;;6.00;99.90;;;;;;5030101;28;20124;-88
2022/03/21 04:53:02;;;;;;;18.70;11.40;;;5.90;99.90;;;;;;5030927;28;20136;-88
2022/03/21 04:55:28;;;;;;;22.10;11.90;;;5.90;99.90;;;;;;5014329;28;20050;-88
2022/03/21 04:57:54;;;;;;;20.50;11.90;;;5.90;99.90;;;;;;5013999;28;20103;-87
2022/03/21 05:00:20;;;;;;;18.42;11.85;;;5.90;99.90;;;;;;5030229;28;20037;-88
2022/03/21 05:02:45;;;;;;;19.52;11.35;;;5.90;99.90;;;;;;5031688;28;20045;-88
2022/03/21 05:05:11;;;;;;;18.00;10.60;;;5.80;99.90;;;;;;5029733;28;20037;-88
2022/03/21 05:07:46;;;;;;;21.92;10.93;;;5.80;99.90;;;;;;5030273;28;20040;-88
2022/03/21 05:10:14;;;;;;;21.20;11.02;;;5.70;99.90;;;;;;5012605;28;20045;-88
2022/03/21 05:12:40;;;;;;;19.30;11.85;;;5.70;99.90;;;;;;5030246;28;20433;-88
2022/03/21 05:15:07;;;;;;;16.80;10.43;;;5.60;99.90;;;;;;5030294;28;20504;-88
2022/03/21 05:17:34;;;;;;;17.50;10.77;;;5.60;99.90;;;;;;5030319;28;20103;-88
2022/03/21 05:20:00;;;;;;;25.98;12.30;;;5.50;99.90;;;;;;5029562;28;20049;-88
2022/03/21 05:22:26;;;;;;;17.40;9.82;;;5.50;99.90;;;;;;5029090;28;20118;-87
2022/03/21 05:36:05;;;;;;;8.45;4.07;;;4.80;99.90;;;;;;5030136;28;20099;-88
2022/03/21 05:38:31;;;;;;;7.95;3.70;;;4.60;99.90;;;;;;5030804;28;20049;-88
2022/03/21 05:41:00;;;;;;;9.43;4.72;;;4.60;99.90;;;;;;5029121;28;20033;-88
2022/03/21 05:43:30;;;;;;;8.90;4.47;;;4.60;99.90;;;;;;5029848;28;20627;-88
2022/03/21 05:45:56;;;;;;;10.60;5.50;;;4.50;99.90;;;;;;5013326;28;20384;-87
2022/03/21 05:51:07;;;;;;;10.15;5.30;;;4.50;99.90;;;;;;5029351;28;20057;-88
2022/03/21 05:53:33;;;;;;;14.45;8.52;;;4.50;99.90;;;;;;5029520;28;20033;-87
2022/03/21 05:56:00;;;;;;;12.85;7.97;;;4.50;99.90;;;;;;5029518;28;20391;-87
2022/03/21 05:58:29;;;;;;;17.30;9.02;;;4.50;99.90;;;;;;5029883;28;20045;-87
2022/03/21 06:00:55;;;;;;;14.23;8.90;;;4.60;99.90;;;;;;5030784;28;20050;-87
2022/03/21 06:03:21;;;;;;;15.88;8.25;;;4.60;99.90;;;;;;5029798;28;20098;-87
2022/03/21 06:05:47;;;;;;;16.55;9.65;;;4.60;99.90;;;;;;5029676;28;20072;-87
2022/03/21 06:08:12;;;;;;;16.70;10.02;;;4.60;99.90;;;;;;5030012;28;20517;-87
2022/03/21 06:10:38;;;;;;;14.95;8.63;;;4.60;99.90;;;;;;5029498;28;20045;-87
2022/03/21 06:13:08;;;;;;;16.67;9.75;;;4.60;99.90;;;;;;5029758;28;20034;-87
2022/03/21 06:15:37;;;;;;;18.08;10.60;;;4.60;99.90;;;;;;5013636;28;20383;-87
2022/03/21 06:18:09;;;;;;;20.90;10.80;;;4.60;99.90;;;;;;5046080;28;20038;-87
2022/03/21 06:20:36;;;;;;;21.00;11.27;;;4.60;99.90;;;;;;5031187;28;20037;-87
2022/03/21 06:23:02;;;;;;;18.45;11.52;;;4.60;99.90;;;;;;5032153;28;20099;-88
2022/03/21 06:25:28;;;;;;;19.38;11.40;;;4.70;99.90;;;;;;5035083;28;20399;-88
2022/03/21 06:27:54;;;;;;;17.67;10.48;;;4.70;99.90;;;;;;5034164;28;20033;-88
2022/03/21 06:30:20;;;;;;;18.90;11.40;;;4.70;99.90;;;;;;5033182;28;20060;-87
2022/03/21 06:32:46;;;;;;;19.13;11.35;;;4.70;99.90;;;;;;5033563;28;20041;-87
2022/03/21 06:35:11;;;;;;;19.08;11.57;;;4.80;99.90;;;;;;5033290;28;20571;-87
2022/03/21 06:37:41;;;;;;;15.75;10.43;;;4.80;99.90;;;;;;5016820;28;20084;-87
2022/03/21 06:40:09;;;;;;;17.85;10.45;;;4.80;99.90;;;;;;5032598;28;20132;-87
2022/03/21 06:42:34;;;;;;;18.30;10.57;;;4.80;99.90;;;;;;5033062;28;20044;-88
2022/03/21 06:45:00;;;;;;;17.65;10.95;;;4.90;99.90;;;;;;5032817;28;20041;-88
2022/03/21 06:47:26;;;;;;;17.05;11.40;;;4.90;99.90;;;;;;5032658;28;20041;-87
2022/03/21 06:49:51;;;;;;;18.73;10.68;;;4.90;99.90;;;;;;5032824;28;20049;-88
2022/03/21 06:52:18;;;;;;;17.58;11.18;;;4.90;99.90;;;;;;5032999;28;20156;-88
2022/03/21 06:54:48;;;;;;;17.08;11.30;;;5.00;99.90;;;;;;5031729;28;20045;-88
2022/03/21 06:57:18;;;;;;;18.92;11.48;;;5.00;99.90;;;;;;5032467;28;20049;-87
2022/03/21 06:59:45;;;;;;;19.58;12.20;;;5.10;99.90;;;;;;5031789;28;20044;-87
2022/03/21 07:02:12;;;;;;;20.98;12.98;;;5.20;99.90;;;;;;5032533;28;20065;-87
2022/03/21 07:04:38;;;;;;;21.23;13.77;;;5.20;99.90;;;;;;5032508;28;20033;-88
2022/03/21 07:07:04;;;;;;;24.35;14.48;;;5.30;99.90;;;;;;5032234;28;20564;-87
2022/03/21 07:09:29;;;;;;;23.38;13.07;;;5.40;99.90;;;;;;5031611;28;20044;-88
2022/03/21 07:11:55;;;;;;;19.80;13.63;;;5.40;99.90;;;;;;5032641;28;20395;-87
2022/03/21 07:14:21;;;;;;;20.88;14.13;;;5.50;99.90;;;;;;5015472;28;20041;-88
2022/03/21 07:16:47;;;;;;;19.95;12.80;;;5.60;99.90;;;;;;5032487;28;20052;-87
2022/03/21 07:19:13;;;;;;;20.98;13.15;;;5.70;99.90;;;;;;5032237;28;20124;-87
2022/03/21 07:21:39;;;;;;;22.45;13.57;;;5.80;99.90;;;;;;5032131;28;20125;-87
2022/03/21 07:24:05;;;;;;;24.67;14.98;;;5.90;99.90;;;;;;5031320;28;20461;-88
2022/03/21 07:26:31;;;;;;;21.15;14.27;;;6.00;99.90;;;;;;5031885;28;20490;-87
2022/03/21 07:28:57;;;;;;;23.55;15.52;;;6.10;99.90;;;;;;5031969;28;20049;-87
2022/03/21 07:31:23;;;;;;;22.00;14.98;;;6.10;99.90;;;;;;5030837;28;20166;-88
2022/03/21 07:33:49;;;;;;;22.27;14.15;;;6.30;99.90;;;;;;5014875;28;20124;-87
2022/03/21 07:36:15;;;;;;;26.35;15.73;;;6.40;99.90;;;;;;5031906;28;20052;-88
2022/03/21 07:38:41;;;;;;;28.00;16.55;;;6.50;99.90;;;;;;5031774;28;20418;-88
2022/03/21 07:41:07;;;;;;;23.98;16.10;;;6.60;99.90;;;;;;5031833;28;20087;-88
2022/03/21 07:43:34;;;;;;;27.63;17.70;;;6.70;99.90;;;;;;5015070;28;20064;-88
2022/03/21 07:48:44;;;;;;;23.55;16.20;;;6.90;99.90;;;;;;5032740;28;20046;-88
2022/03/21 07:51:11;;;;;;;28.40;17.05;;;7.00;99.90;;;;;;5031024;28;20053;-88
2022/03/21 07:53:36;;;;;;;28.05;17.05;;;7.20;99.90;;;;;;5031395;28;20438;-88
2022/03/21 07:56:02;;;;;;;23.65;15.50;;;7.30;99.90;;;;;;5031430;28;20096;-88
2022/03/21 07:58:28;;;;;;;26.13;15.68;;;7.50;99.90;;;;;;5015025;28;20486;-88
2022/03/21 08:00:56;;;;;;;26.88;16.08;;;7.60;99.90;;;;;;5030986;28;20038;-88
2022/03/21 08:03:22;;;;;;;25.27;15.90;;;7.70;99.90;;;;;;5031711;28;20494;-88
2022/03/21 08:05:48;;;;;;;26.35;15.43;;;7.80;99.90;;;;;;5014671;28;20083;-88
2022/03/21 08:08:15;;;;;;;24.00;15.27;;;7.90;99.90;;;;;;5031400;28;20068;-87
2022/03/21 08:10:41;;;;;;;25.42;16.00;;;8.00;99.90;;;;;;5030934;28;20049;-88
2022/03/21 08:13:08;;;;;;;23.58;16.15;;;8.20;99.90;;;;;;5031548;28;20423;-89
2022/03/21 08:15:36;;;;;;;21.73;15.35;;;8.30;99.90;;;;;;5031499;28;20047;-88
2022/03/21 08:18:05;;;;;;;24.33;15.13;;;8.40;99.90;;;;;;5030843;28;20406;-88
2022/03/21 08:20:33;;;;;;;21.85;14.90;;;8.50;99.90;;;;;;5030575;28;20042;-88
2022/03/21 08:23:12;;;;;;;24.52;15.15;;;8.70;99.90;;;;;;5030198;28;20087;-89
2022/03/21 08:25:45;;;;;;;21.98;15.15;;;8.80;99.90;;;;;;5031005;28;20133;-88
2022/03/21 08:28:11;;;;;;;21.95;13.80;;;8.90;99.90;;;;;;5014477;28;20056;-88
2022/03/21 08:30:38;;;;;;;26.15;15.93;;;9.00;99.90;;;;;;5030803;28;20375;-88
2022/03/21 08:33:06;;;;;;;21.92;15.27;;;9.10;99.90;;;;;;5031075;28;20132;-88
2022/03/21 08:35:33;;;;;;;23.65;16.83;;;9.20;99.90;;;;;;5014064;28;20069;-88
2022/03/21 08:37:58;;;;;;;23.80;15.20;;;9.40;99.90;;;;;;5014169;28;20037;-88
2022/03/21 08:40:26;;;;;;;23.23;15.75;;;9.50;99.90;;;;;;5030245;28;20446;-88
2022/03/21 08:42:51;;;;;;;21.60;14.68;;;9.60;99.90;;;;;;5030820;28;20132;-88
2022/03/21 08:45:18;;;;;;;22.73;14.63;;;9.70;99.90;;;;;;5029781;28;20065;-88
2022/03/21 08:47:44;;;;;;;23.60;14.88;;;9.80;99.90;;;;;;5030316;28;20048;-88
2022/03/21 08:50:10;;;;;;;23.27;15.25;;;9.90;99.90;;;;;;5029857;28;20042;-88
2022/03/21 08:52:37;;;;;;;23.10;15.98;;;10.00;99.90;;;;;;5030844;28;20041;-88
2022/03/21 08:55:04;;;;;;;21.08;15.35;;;10.20;99.90;;;;;;5030592;28;20561;-89
2022/03/21 08:57:31;;;;;;;24.50;15.88;;;10.30;99.90;;;;;;5014175;28;20037;-89
2022/03/21 08:59:56;;;;;;;24.20;15.00;;;10.40;99.90;;;;;;5029725;28;20068;-89
2022/03/21 09:02:22;;;;;;;22.15;14.73;;;10.60;99.90;;;;;;5030557;28;20084;-89
2022/03/21 09:04:47;;;;;;;23.13;14.93;;;10.60;99.90;;;;;;5014020;28;20038;-89
2022/03/21 09:07:13;;;;;;;21.23;14.90;;;10.80;99.90;;;;;;5030026;28;20057;-88
2022/03/21 09:09:40;;;;;;;21.17;15.48;;;10.90;99.90;;;;;;5029785;28;20045;-89
2022/03/21 09:12:07;;;;;;;22.63;15.60;;;11.00;99.90;;;;;;5030344;28;20034;-89
2022/03/21 09:14:33;;;;;;;24.95;15.32;;;11.10;99.90;;;;;;5030385;28;20037;-89
2022/03/21 09:17:00;;;;;;;23.42;14.93;;;11.30;99.90;;;;;;5013112;28;20130;-89
2022/03/21 09:19:27;;;;;;;21.20;13.85;;;11.40;99.90;;;;;;5028230;28;20052;-89
2022/03/21 09:21:54;;;;;;;18.30;14.00;;;11.50;99.90;;;;;;5028665;28;20041;-89
2022/03/21 09:24:20;;;;;;;19.95;14.13;;;11.70;99.90;;;;;;5014021;28;20083;-89
2022/03/21 09:26:45;;;;;;;21.70;14.88;;;11.70;99.90;;;;;;5037699;28;20045;-89
2022/03/21 09:29:11;;;;;;;20.75;14.38;;;11.90;99.90;;;;;;5049633;28;20052;-89
2022/03/21 09:31:39;;;;;;;21.48;15.07;;;12.00;99.90;;;;;;5049415;28;20479;-89
2022/03/21 09:34:05;;;;;;;21.27;14.85;;;12.10;99.90;;;;;;5049833;28;20049;-89
2022/03/21 09:36:31;;;;;;;21.40;15.63;;;12.20;99.60;;;;;;5033257;28;20052;-89
2022/03/21 09:38:56;;;;;;;23.05;15.75;;;12.30;98.90;;;;;;5049358;28;20045;-89
2022/03/21 09:41:29;;;;;;;22.00;14.68;;;12.40;98.20;;;;;;5047960;28;20119;-89
2022/03/21 09:43:56;;;;;;;;;;;12.50;97.60;;;;;;5050389;28;20052;-89
2022/03/21 09:46:22;;;;;;;21.08;15.00;;;12.50;97.20;;;;;;5049239;28;19920;-89
2022/03/21 09:48:53;;;;;;;26.48;18.73;;;12.60;97.60;;;;;;5049586;28;20444;-89
2022/03/21 09:51:27;;;;;;;22.98;17.50;;;12.70;96.20;;;;;;5049324;28;20132;-89
2022/03/21 09:53:56;;;;;;;22.92;16.95;;;12.70;95.00;;;;;;5049753;28;20048;-89
2022/03/21 09:56:23;;;;;;;26.30;17.95;;;12.80;95.90;;;;;;5033919;28;20132;-89
2022/03/21 09:58:49;;;;;;;22.90;17.35;;;12.90;94.70;;;;;;5054151;28;20045;-89
2022/03/21 10:01:16;;;;;;;22.92;18.17;;;13.00;94.50;;;;;;5036676;28;20387;-89
2022/03/21 10:03:42;;;;;;;24.05;18.63;;;13.10;94.10;;;;;;5038879;28;20037;-89
2022/03/21 10:06:27;;;;;;;24.35;19.75;;;13.20;94.00;;;;;;5033319;28;20048;-89
2022/03/21 10:09:11;;;;;;;22.60;18.98;;;13.30;93.10;;;;;;5033622;28;20119;-89
2022/03/21 10:11:37;;;;;;;28.40;20.00;;;13.40;93.00;;;;;;5033305;28;20079;-89
2022/03/21 10:14:22;;;;;;;28.00;21.27;;;13.50;92.20;;;;;;5017377;28;20037;-88
2022/03/21 10:16:52;;;;;;;27.98;21.38;;;13.60;91.50;;;;;;5017151;28;20529;-89
2022/03/21 10:19:17;;;;;;;27.95;20.65;;;13.70;90.40;;;;;;5016796;28;20140;-89
2022/03/21 10:22:08;;;;;;;30.63;22.50;;;13.70;90.80;;;;;;5032618;28;20120;-89
2022/03/21 10:24:39;;;;;;;27.45;22.65;;;13.90;88.30;;;;;;5031475;28;20041;-89
2022/03/21 10:27:05;;;;;;;30.45;23.20;;;14.00;87.50;;;;;;5032657;28;20056;-88
2022/03/21 10:29:31;;;;;;;29.88;21.00;;;14.00;87.10;;;;;;5016268;28;20494;-88
2022/03/21 10:31:58;;;;;;;29.38;21.75;;;14.10;85.50;;;;;;5016877;28;20129;-88
2022/03/21 10:34:33;;;;;;;28.25;21.35;;;14.30;84.80;;;;;;5033426;28;20565;-88
2022/03/21 10:37:05;;;;;;;29.13;21.63;;;14.40;84.20;;;;;;5033196;28;20042;-88
2022/03/21 10:39:36;;;;;;;30.23;22.08;;;14.50;83.10;;;;;;5016370;28;20041;-88
2022/03/21 10:42:09;;;;;;;27.58;21.45;;;14.50;81.00;;;;;;5033125;28;20433;-88
2022/03/21 10:44:36;;;;;;;28.05;21.08;;;14.50;79.30;;;;;;5033520;28;20042;-88
2022/03/21 10:47:05;;;;;;;25.83;20.92;;;14.60;79.00;;;;;;5032551;28;20045;-88
2022/03/21 10:49:43;;;;;;;26.40;21.75;;;14.60;77.40;;;;;;5015880;28;20041;-89
2022/03/21 10:52:18;;;;;;;29.80;21.90;;;14.80;78.80;;;;;;5019557;28;20118;-89
2022/03/21 10:54:48;;;;;;;27.75;22.23;;;14.90;77.10;;;;;;5033073;28;20394;-90
2022/03/21 10:57:36;;;;;;;27.58;21.50;;;15.00;77.90;;;;;;5033166;28;20072;-90
2022/03/21 11:00:11;;;;;;;29.23;22.00;;;15.10;76.60;;;;;;5030243;28;20084;-89
2022/03/21 11:02:37;;;;;;;26.90;21.98;;;15.20;75.80;;;;;;5032323;28;20069;-89
2022/03/21 11:05:04;;;;;;;27.25;22.40;;;15.40;75.70;;;;;;5032100;28;20525;-89
2022/03/21 11:07:30;;;;;;;29.25;23.35;;;15.50;75.00;;;;;;5031015;28;20037;-89
2022/03/21 11:09:57;;;;;;;29.88;22.25;;;15.60;75.30;;;;;;5031246;28;20041;-89
2022/03/21 11:12:23;;;;;;;27.17;21.45;;;15.80;74.40;;;;;;5032067;28;20041;-89
2022/03/21 11:14:49;;;;;;;28.45;21.50;;;15.90;70.60;;;;;;5032853;28;20128;-89
2022/03/21 11:17:15;;;;;;;24.65;21.58;;;15.90;69.00;;;;;;5016042;28;20045;-89
2022/03/21 11:19:43;;;;;;;27.15;22.02;;;15.90;68.90;;;;;;5032025;28;20045;-89
2022/03/21 11:22:10;;;;;;;27.40;21.08;;;16.00;68.80;;;;;;5030499;28;20395;-89
2022/03/21 11:24:38;;;;;;;26.50;21.15;;;16.00;69.10;;;;;;5035436;28;20041;-89
2022/03/21 11:27:20;;;;;;;25.98;21.77;;;16.10;67.80;;;;;;5049878;28;20891;-89
2022/03/21 11:30:26;;;;;;;25.65;21.50;;;16.20;67.40;;;;;;5052034;28;20033;-89
2022/03/21 11:33:20;;;;;;;26.27;20.52;;;16.50;67.80;;;;;;5047070;28;20053;-89
2022/03/21 11:35:51;;;;;;;25.10;20.88;;;16.60;65.90;;;;;;5037395;28;20117;-88
2022/03/21 11:38:29;;;;;;;25.70;21.10;;;16.60;64.20;;;;;;5036421;28;20634;-88
2022/03/21 11:41:14;;;;;;;24.80;20.58;;;16.60;64.20;;;;;;5032434;28;20040;-88
2022/03/21 11:43:45;;;;;;;27.70;21.73;;;16.70;65.70;;;;;;5032038;28;20041;-88
2022/03/21 11:46:30;;;;;;;25.33;21.15;;;16.70;64.50;;;;;;5032017;28;20498;-88
2022/03/21 11:49:01;;;;;;;25.83;20.83;;;16.80;64.60;;;;;;5031451;28;20498;-88
2022/03/21 11:51:33;;;;;;;25.17;21.40;;;16.90;63.40;;;;;;5029951;28;20445;-88
2022/03/21 11:53:59;;;;;;;;;;;17.00;64.00;;;;;;5016207;28;20037;-88
2022/03/21 11:56:40;;;;;;;26.92;20.65;;;17.20;63.70;;;;;;5030328;28;19917;-88
2022/03/21 11:59:06;;;;;;;25.33;22.20;;;17.50;64.30;;;;;;5032038;28;20045;-88
2022/03/21 12:01:32;;;;;;;23.33;20.38;;;17.50;63.90;;;;;;5014983;28;20065;-88
2022/03/21 12:04:23;;;;;;;29.45;21.98;;;17.60;62.70;;;;;;5031822;28;20083;-88
2022/03/21 12:06:49;;;;;;;27.60;22.58;;;17.50;60.30;;;;;;5031843;28;20225;-88
2022/03/21 12:09:15;;;;;;;26.25;22.50;;;17.50;61.60;;;;;;5031443;28;20207;-88
2022/03/21 12:11:41;;;;;;;31.33;22.20;;;17.50;61.30;;;;;;5031290;28;20049;-88
2022/03/21 12:14:36;;;;;;;24.15;20.95;;;17.50;61.40;;;;;;5032091;28;20442;-88
2022/03/21 12:17:01;;;;;;;24.95;20.92;;;17.50;60.50;;;;;;5031570;28;20049;-88
2022/03/21 12:19:48;;;;;;;25.70;20.35;;;17.60;60.50;;;;;;5031296;28;20103;-88
2022/03/21 12:25:16;;;;;;;25.23;20.63;;;18.30;60.90;;;;;;5039902;28;20123;-88
2022/03/21 12:27:55;;;;;;;26.58;21.65;;;18.50;61.00;;;;;;5050762;28;20033;-88
2022/03/21 12:30:20;;;;;;;25.10;21.35;;;18.80;60.30;;;;;;5051013;28;20047;-88
2022/03/21 12:32:56;;;;;;;24.98;20.42;;;19.00;60.00;;;;;;5051269;28;20033;-88
2022/03/21 12:35:31;;;;;;;30.20;22.95;;;19.20;59.00;;;;;;5051294;28;20077;-88
2022/03/21 12:38:03;;;;;;;24.48;20.58;;;19.30;58.30;;;;;;5034586;28;20041;-88
2022/03/21 12:40:30;;;;;;;23.27;20.67;;;19.50;57.30;;;;;;5050911;28;20506;-89
2022/03/21 12:42:59;;;;;;;27.17;22.00;;;19.80;56.30;;;;;;5050979;28;20051;-89
2022/03/21 12:45:25;;;;;;;28.17;22.08;;;20.00;55.20;;;;;;5050892;28;20124;-88
2022/03/21 12:47:51;;;;;;;28.17;21.05;;;19.90;55.10;;;;;;5033927;28;20405;-88
2022/03/21 12:50:19;;;;;;;25.45;20.48;;;20.20;55.10;;;;;;5050275;28;20049;-88
2022/03/21 12:52:52;;;;;;;26.52;19.90;;;20.40;54.50;;;;;;5034328;28;20083;-88
2022/03/21 12:55:18;;;;;;;24.88;20.92;;;20.70;53.60;;;;;;5050957;28;20132;-88
2022/03/21 12:57:58;;;;;;;24.42;20.38;;;20.80;52.50;;;;;;5033195;28;20128;-88
2022/03/21 13:00:34;;;;;;;27.33;20.60;;;20.90;51.30;;;;;;5030180;28;20048;-88
2022/03/21 13:03:15;;;;;;;24.23;20.30;;;20.90;51.70;;;;;;5013917;28;20033;-88